Flight Track Log - Related Links

Times and Time Zones

All times are in EDT time to prevent confusion due to time zone crossing. See the CNS33 flight status page for this flight to view local times or setup timezone preferences in your user account.

Time Position Orientation Groundspeed Altitude Reporting Facility
EDT Latitude Longitude Course Direction KTS MPH feet Rate Location/Type
Sun 07:15:17 AM 43.1000 -88.0333 180° South 101 116 1,100  Level KMKE
Sun 07:15:59 AM 43.0833 -88.0333 180° South 129 148 2,200 1,625 Climbing KMKE
Sun 07:16:53 AM 43.0500 -88.0500 200° South 169 194 3,700 1,550 Climbing KMKE
Sun 07:17:59 AM 43.0000 -88.1000 216° Southwest 174 200 5,300 1,476 Climbing KMKE
Sun 07:18:59 AM 42.9667 -88.1500 228° Southwest 181 208 6,800 1,395 Climbing KMKE
Sun 07:20:08 AM 42.9211 -88.1650 194° South 181 208 8,300 1,302 Climbing Chicago Center
Sun 07:21:08 AM 42.8708 -88.1650 180° South 179 206 9,600 1,339 Climbing Chicago Center
Sun 07:22:09 AM 42.8203 -88.1633 179° South 182 209 11,000 1,328 Climbing Chicago Center
Sun 07:23:10 AM 42.7675 -88.1617 179° South 188 216 12,300 1,289 Climbing Chicago Center
Sun 07:24:10 AM 42.7167 -88.1550 174° South 185 213 13,600 1,289 Climbing Chicago Center
Sun 07:25:11 AM 42.6714 -88.1214 151° Southeast 180 207 14,900 1,328 Climbing Chicago Center
Sun 07:26:12 AM 42.6225 -88.1008 163° South 183 211 16,300 1,279 Climbing Chicago Center
Sun 07:27:13 AM 42.5744 -88.0817 164° South 180 207 17,500 1,091 Climbing Chicago Center
Sun 07:28:13 AM 42.5261 -88.0589 161° South 183 211 18,500 992 Climbing Chicago Center
Sun 07:29:14 AM 42.4811 -88.0322 156° South 178 205 19,500 984 Climbing Chicago Center
Sun 07:30:15 AM 42.4239 -88.0089 163° South 183 211 20,500 738 Climbing Chicago Center
Sun 07:31:16 AM 42.3742 -87.9842 160° South 188 216 21,000 246 Climbing Chicago Center
Sun 07:32:17 AM 42.3183 -87.9619 164° South 213 245 21,000  Level Chicago Center
Sun 07:33:18 AM 42.2575 -87.9342 161° South 229 264 21,000  Level Chicago Center
Sun 07:34:18 AM 42.1950 -87.9067 162° South 237 273 21,000  Level Chicago Center
Sun 07:35:19 AM 42.1325 -87.8767 160° South 239 275 21,000  Level Chicago Center
Sun 07:36:20 AM 42.0689 -87.8489 162° South 240 276 21,000  Level Chicago Center
Sun 07:37:21 AM 42.0061 -87.8208 162° South 239 275 21,000  Level Chicago Center
Sun 07:38:22 AM 41.9425 -87.7908 161° South 241 277 21,000  Level Chicago Center
Sun 07:39:23 AM 41.8800 -87.7600 160° South 240 276 21,000  Level Chicago Center
Sun 07:40:24 AM 41.8169 -87.7292 160° South 242 278 21,000  Level Chicago Center
Sun 07:41:24 AM 41.7533 -87.6981 160° South 243 280 21,000  Level Chicago Center
Sun 07:42:25 AM 41.6772 -87.6619 160° South 242 278 21,000  Level Chicago Center
Sun 07:43:26 AM 41.6133 -87.6311 160° South 243 280 21,000  Level Chicago Center
Sun 07:44:27 AM 41.5508 -87.6008 160° South 239 275 21,000  Level Chicago Center
Sun 07:45:28 AM 41.4900 -87.5719 160° South 234 269 21,000  Level Chicago Center
Sun 07:46:29 AM 41.4292 -87.5428 160° South 232 267 21,000  Level Chicago Center
Sun 07:47:30 AM 41.3692 -87.5142 160° South 230 265 21,000  Level Chicago Center
Sun 07:48:31 AM 41.3089 -87.4853 160° South 230 265 21,000  Level Chicago Center
Sun 07:49:32 AM 41.2489 -87.4575 161° South 230 265 21,000  Level Chicago Center
Sun 07:50:33 AM 41.1886 -87.4283 160° South 231 266 21,000  Level Chicago Center
Sun 07:51:34 AM 41.1281 -87.4008 161° South 231 266 21,000  Level Chicago Center
Sun 07:52:35 AM 41.0678 -87.3722 160° South 230 265 21,000  Level Chicago Center
Sun 07:53:36 AM 41.0078 -87.3428 160° South 231 266 21,000  Level Chicago Center
Sun 07:54:36 AM 40.9464 -87.3147 161° South 233 268 21,000  Level Chicago Center
Sun 07:55:37 AM 40.8739 -87.2797 160° South 233 268 21,000  Level Chicago Center
Sun 07:56:39 AM 40.8125 -87.2525 161° South 234 269 21,000  Level Chicago Center
Sun 07:57:40 AM 40.7531 -87.2239 160° South 229 264 21,000  Level Chicago Center
Sun 07:58:44 AM 40.6928 -87.1964 161° South 230 265 21,000  Level Chicago Center
Sun 07:59:45 AM 40.6317 -87.1678 160° South 234 269 21,000  Level Chicago Center
Sun 08:00:47 AM 40.5714 -87.1400 161° South 230 265 21,000  Level Chicago Center
Sun 08:01:47 AM 40.5103 -87.1117 161° South 232 267 21,000  Level Chicago Center
Sun 08:02:48 AM 40.4394 -87.0778 160° South 232 267 21,000  Level Chicago Center
Sun 08:03:49 AM 40.3794 -87.0506 161° South 230 265 21,000  Level Chicago Center
Sun 08:04:50 AM 40.3200 -87.0228 160° South 228 262 21,000  Level Chicago Center
Sun 08:05:51 AM 40.2600 -86.9967 162° South 229 264 21,000  Level Chicago Center
Sun 08:06:52 AM 40.2014 -86.9689 160° South 226 260 21,000  Level Chicago Center
Sun 08:07:53 AM 40.1419 -86.9411 160° South 228 262 21,000  Level Chicago Center
Sun 08:08:54 AM 40.0808 -86.9125 160° South 228 262 21,000  Level Indianapolis Center
Sun 08:09:55 AM 40.0217 -86.8864 161° South 227 261 21,000  Level Indianapolis Center
Sun 08:10:56 AM 39.9625 -86.8589 160° South 227 261 21,000  Level Indianapolis Center
Sun 08:11:58 AM 39.8914 -86.8275 161° South 227 261 21,000  Level Indianapolis Center
Sun 08:12:59 AM 39.8317 -86.8000 161° South 228 262 21,000  Level Indianapolis Center
Sun 08:14:00 AM 39.7725 -86.7736 161° South 228 262 21,000  Level Indianapolis Center
Sun 08:15:01 AM 39.7125 -86.7458 160° South 230 265 21,000  Level Indianapolis Center
Sun 08:16:03 AM 39.6522 -86.7200 162° South 231 266 21,000  Level Indianapolis Center
Sun 08:17:04 AM 39.5922 -86.6928 161° South 231 266 21,000  Level Indianapolis Center
Sun 08:18:05 AM 39.5322 -86.6650 160° South 231 266 21,000  Level Indianapolis Center
Sun 08:19:06 AM 39.4725 -86.6383 161° South 228 262 21,000  Level Indianapolis Center
Sun 08:20:07 AM 39.4017 -86.6061 161° South 226 260 21,000 -246 Level Indianapolis Center
Sun 08:21:08 AM 39.3442 -86.5808 161° South 221 254 20,500 -732 Descending Indianapolis Center
Sun 08:22:10 AM 39.2789 -86.5525 161° South 240 276 19,500 -1,024 Descending Indianapolis Center
Sun 08:23:11 AM 39.2125 -86.5231 161° South 252 290 18,400 -1,082 Descending Indianapolis Center
Sun 08:24:12 AM 39.1433 -86.4919 161° South 262 302 17,300 -1,082 Descending Indianapolis Center
Sun 08:25:13 AM 39.0756 -86.4608 160° South 261 300 16,200 -1,131 Descending Indianapolis Center
Sun 08:26:14 AM 39.0119 -86.4336 162° South 248 285 15,000 -1,180 Descending Indianapolis Center
Sun 08:27:15 AM 38.9486 -86.4053 161° South 241 277 13,800 -1,220 Descending Indianapolis Center
Sun 08:28:17 AM 38.8781 -86.3739 161° South 239 275 12,500 -1,220 Descending Indianapolis Center
Sun 08:29:18 AM 38.8175 -86.3486 162° South 232 267 11,300 -1,131 Descending Indianapolis Center
Sun 08:30:19 AM 38.7603 -86.3228 161° South 221 254 10,200 -1,131 Descending Indianapolis Center
Sun 08:31:20 AM 38.7292 -86.2653 125° Southeast 210 242 9,000 -1,180 Descending Indianapolis Center
Sun 08:32:21 AM 38.7019 -86.2039 120° Southeast 202 232 7,800 -984 Descending Indianapolis Center
Sun 08:33:22 AM 38.6786 -86.1508 119° Southeast 182 209 7,000 -344 Descending Indianapolis Center
Sun 08:34:23 AM 38.6589 -86.1083 121° Southeast 160 184 7,100  Climbing Indianapolis Center
Sun 08:35:25 AM 38.6400 -86.0636 118° Southeast 148 170 7,000 -98 Descending Indianapolis Center
Sun 08:36:26 AM 38.6181 -86.0131 119° Southeast 155 178 6,900 -541 Descending Indianapolis Center
Sun 08:37:27 AM 38.5953 -85.9619 120° Southeast 162 186 5,900 -984 Descending Indianapolis Center
Sun 08:38:28 AM 38.5717 -85.9092 120° Southeast 169 194 4,900 -934 Descending Indianapolis Center
Sun 08:39:29 AM 38.5497 -85.8625 121° Southeast 158 182 4,000 -934 Descending Indianapolis Center
Sun 08:40:30 AM 38.5267 -85.8114 120° Southeast 145 167 3,000 -439 Descending Indianapolis Center
Sun 08:41:32 AM 38.5094 -85.7719 119° Southeast 136 157 3,100  Climbing Indianapolis Center
Sun 08:42:33 AM 38.4881 -85.7203 118° Southeast 147 169 3,000 -49 Descending Indianapolis Center
Sun 08:43:34 AM 38.4608 -85.6606 120° Southeast 170 196 3,000  Level Indianapolis Center
Sun 08:44:35 AM 38.4294 -85.5972 122° Southeast 182 209 3,000  Level Indianapolis Center
Sun 08:47:37 AM 38.3000 -85.5000 149° Southeast 229 264 3,000 -311 Level Louisville TRACON
Sun 08:49:00 AM 38.2527 -85.5853 235° Southwest  Level FlightAware Approximate
Sun 08:50:22 AM 38.2500 -85.6333 235° Southwest 149 171 1,200  Level Louisville TRACON

Login

Don't have an account? Register now (free) for customized features, flight alerts, and more!